sensor_id;sensor_type;location;lat;lon;timestamp;pressure;altitude;pressure_sealevel;temperature;humidity
70240;BME280;57629;52.256;10.414;2024-02-26T00:00:38;99549.22;;;18.43;46.50
70240;BME280;57629;52.256;10.414;2024-02-26T00:01:44;99554.53;;;18.43;46.45
70240;BME280;57629;52.256;10.414;2024-02-26T00:02:44;99550.31;;;18.42;46.60
70240;BME280;57629;52.256;10.414;2024-02-26T00:03:45;99551.88;;;18.43;46.70
70240;BME280;57629;52.256;10.414;2024-02-26T00:04:46;99548.44;;;18.42;46.67
70240;BME280;57629;52.256;10.414;2024-02-26T00:05:46;99549.22;;;18.43;45.98
70240;BME280;57629;52.256;10.414;2024-02-26T00:06:47;99553.75;;;18.42;46.30
70240;BME280;57629;52.256;10.414;2024-02-26T00:07:48;99550.31;;;18.42;46.23
70240;BME280;57629;52.256;10.414;2024-02-26T00:08:48;99544.97;;;18.42;46.56
70240;BME280;57629;52.256;10.414;2024-02-26T00:09:50;99547.41;;;18.43;46.91
70240;BME280;57629;52.256;10.414;2024-02-26T00:10:51;99541.53;;;18.41;46.43
70240;BME280;57629;52.256;10.414;2024-02-26T00:11:52;99549.22;;;18.43;46.20
70240;BME280;57629;52.256;10.414;2024-02-26T00:12:53;99546.84;;;18.41;46.59
70240;BME280;57629;52.256;10.414;2024-02-26T00:13:53;99544.97;;;18.42;46.22
70240;BME280;57629;52.256;10.414;2024-02-26T00:14:54;99545.22;;;18.40;46.30
70240;BME280;57629;52.256;10.414;2024-02-26T00:15:55;99546.03;;;18.41;46.58
70240;BME280;57629;52.256;10.414;2024-02-26T00:16:56;99548.69;;;18.41;46.25
70240;BME280;57629;52.256;10.414;2024-02-26T00:17:57;99546.03;;;18.41;46.41
70240;BME280;57629;52.256;10.414;2024-02-26T00:18:57;99555.63;;;18.42;46.42
70240;BME280;57629;52.256;10.414;2024-02-26T00:19:58;99560.13;;;18.41;46.50
70240;BME280;57629;52.256;10.414;2024-02-26T00:20:59;99551.34;;;18.41;46.21
70240;BME280;57629;52.256;10.414;2024-02-26T00:22:00;99551.34;;;18.41;46.39
70240;BME280;57629;52.256;10.414;2024-02-26T00:23:01;99550.56;;;18.40;46.56
70240;BME280;57629;52.256;10.414;2024-02-26T00:24:02;99549.75;;;18.40;46.00
70240;BME280;57629;52.256;10.414;2024-02-26T00:25:06;99547.09;;;18.40;46.43
70240;BME280;57629;52.256;10.414;2024-02-26T00:26:07;99548.69;;;18.41;46.21
70240;BME280;57629;52.256;10.414;2024-02-26T00:27:08;99541.78;;;18.40;46.55
70240;BME280;57629;52.256;10.414;2024-02-26T00:28:10;99547.09;;;18.40;46.22
70240;BME280;57629;52.256;10.414;2024-02-26T00:29:15;99547.09;;;18.40;46.53
70240;BME280;57629;52.256;10.414;2024-02-26T00:30:20;99547.09;;;18.40;46.53
70240;BME280;57629;52.256;10.414;2024-02-26T00:31:25;99544.44;;;18.40;46.42
70240;BME280;57629;52.256;10.414;2024-02-26T00:32:29;99553.22;;;18.40;46.43
70240;BME280;57629;52.256;10.414;2024-02-26T00:33:30;99540.72;;;18.41;46.49
70240;BME280;57629;52.256;10.414;2024-02-26T00:34:32;99546.31;;;18.39;46.28
70240;BME280;57629;52.256;10.414;2024-02-26T00:35:33;99547.88;;;18.40;46.14
70240;BME280;57629;52.256;10.414;2024-02-26T00:36:37;99541.78;;;18.40;46.08
70240;BME280;57629;52.256;10.414;2024-02-26T00:37:38;99547.88;;;18.40;46.52
70240;BME280;57629;52.256;10.414;2024-02-26T00:38:38;99542.84;;;18.39;46.37
70240;BME280;57629;52.256;10.414;2024-02-26T00:39:39;99542.03;;;18.38;46.22
70240;BME280;57629;52.256;10.414;2024-02-26T00:40:41;99542.84;;;18.39;46.43
70240;BME280;57629;52.256;10.414;2024-02-26T00:41:42;99536.72;;;18.38;46.07
70240;BME280;57629;52.256;10.414;2024-02-26T00:42:42;99536.72;;;18.38;46.21
70240;BME280;57629;52.256;10.414;2024-02-26T00:43:47;99535.91;;;18.38;46.69
70240;BME280;57629;52.256;10.414;2024-02-26T00:44:47;99535.66;;;18.39;46.30
70240;BME280;57629;52.256;10.414;2024-02-26T00:45:48;99530.34;;;18.39;46.28
70240;BME280;57629;52.256;10.414;2024-02-26T00:46:49;99528.75;;;18.38;46.12
70240;BME280;57629;52.256;10.414;2024-02-26T00:47:49;99535.66;;;18.39;46.27
70240;BME280;57629;52.256;10.414;2024-02-26T00:48:50;99540.19;;;18.39;46.19
70240;BME280;57629;52.256;10.414;2024-02-26T00:49:51;99538.56;;;18.38;46.26
70240;BME280;57629;52.256;10.414;2024-02-26T00:50:52;99542.84;;;18.39;46.20
70240;BME280;57629;52.256;10.414;2024-02-26T00:51:52;99540.19;;;18.39;46.32
70240;BME280;57629;52.256;10.414;2024-02-26T00:52:53;99542.84;;;18.39;46.25
70240;BME280;57629;52.256;10.414;2024-02-26T00:53:54;99539.38;;;18.38;46.14
70240;BME280;57629;52.256;10.414;2024-02-26T00:54:55;99538.56;;;18.38;46.38
70240;BME280;57629;52.256;10.414;2024-02-26T00:55:57;99534.06;;;18.38;46.37
70240;BME280;57629;52.256;10.414;2024-02-26T00:56:58;99529.81;;;18.37;46.26
70240;BME280;57629;52.256;10.414;2024-02-26T00:58:00;99533.25;;;18.38;46.26
70240;BME280;57629;52.256;10.414;2024-02-26T00:59:00;99535.91;;;18.38;46.48
70240;BME280;57629;52.256;10.414;2024-02-26T01:00:01;99530.59;;;18.38;46.44
70240;BME280;57629;52.256;10.414;2024-02-26T01:01:02;99538.56;;;18.38;46.26
70240;BME280;57629;52.256;10.414;2024-02-26T01:02:05;99537.53;;;18.39;46.33
70240;BME280;57629;52.256;10.414;2024-02-26T01:03:05;99527.16;;;18.37;46.17
70240;BME280;57629;52.256;10.414;2024-02-26T01:04:07;99534.34;;;18.37;46.19
70240;BME280;57629;52.256;10.414;2024-02-26T01:05:08;99535.91;;;18.38;46.40
70240;BME280;57629;52.256;10.414;2024-02-26T01:06:09;99530.59;;;18.38;46.23
70240;BME280;57629;52.256;10.414;2024-02-26T01:07:11;99535.13;;;18.37;46.33
70240;BME280;57629;52.256;10.414;2024-02-26T01:08:16;99529.81;;;18.37;46.07
70240;BME280;57629;52.256;10.414;2024-02-26T01:09:22;99530.59;;;18.38;46.21
70240;BME280;57629;52.256;10.414;2024-02-26T01:10:25;99527.16;;;18.37;46.16
70240;BME280;57629;52.256;10.414;2024-02-26T01:11:31;99534.06;;;18.38;46.15
70240;BME280;57629;52.256;10.414;2024-02-26T01:12:31;99532.47;;;18.37;46.20
70240;BME280;57629;52.256;10.414;2024-02-26T01:13:32;99524.50;;;18.37;46.06
70240;BME280;57629;52.256;10.414;2024-02-26T01:14:33;99536.72;;;18.38;46.16
70240;BME280;57629;52.256;10.414;2024-02-26T01:15:36;99533.25;;;18.38;46.21
70240;BME280;57629;52.256;10.414;2024-02-26T01:16:37;99531.66;;;18.37;46.25
70240;BME280;57629;52.256;10.414;2024-02-26T01:17:38;99530.88;;;18.36;46.00
70240;BME280;57629;52.256;10.414;2024-02-26T01:18:39;99534.34;;;18.37;46.16
70240;BME280;57629;52.256;10.414;2024-02-26T01:19:39;99539.66;;;18.37;46.22
70240;BME280;57629;52.256;10.414;2024-02-26T01:20:40;99538.03;;;18.36;46.03
70240;BME280;57629;52.256;10.414;2024-02-26T01:21:41;99542.31;;;18.37;46.15
70240;BME280;57629;52.256;10.414;2024-02-26T01:22:43;99537.78;;;18.37;46.14
70240;BME280;57629;52.256;10.414;2024-02-26T01:23:44;99531.66;;;18.37;46.23
70240;BME280;57629;52.256;10.414;2024-02-26T01:24:45;99528.22;;;18.36;46.10
70240;BME280;57629;52.256;10.414;2024-02-26T01:25:46;99530.88;;;18.36;46.32
70240;BME280;57629;52.256;10.414;2024-02-26T01:26:48;99529.00;;;18.37;45.80
70240;BME280;57629;52.256;10.414;2024-02-26T01:27:50;99523.69;;;18.37;46.08
70240;BME280;57629;52.256;10.414;2024-02-26T01:28:51;99524.75;;;18.36;46.24
70240;BME280;57629;52.256;10.414;2024-02-26T01:29:53;99522.91;;;18.36;46.17
70240;BME280;57629;52.256;10.414;2024-02-26T01:30:53;99523.69;;;18.37;46.27
70240;BME280;57629;52.256;10.414;2024-02-26T01:31:54;99527.41;;;18.36;46.14
70240;BME280;57629;52.256;10.414;2024-02-26T01:32:55;99521.03;;;18.37;46.31
70240;BME280;57629;52.256;10.414;2024-02-26T01:33:56;99525.56;;;18.36;46.49
70240;BME280;57629;52.256;10.414;2024-02-26T01:34:56;99515.97;;;18.35;46.17
70240;BME280;57629;52.256;10.414;2024-02-26T01:35:57;99517.84;;;18.35;46.39
70240;BME280;57629;52.256;10.414;2024-02-26T01:36:58;99522.91;;;18.36;46.14
70240;BME280;57629;52.256;10.414;2024-02-26T01:37:58;99520.50;;;18.35;46.09
70240;BME280;57629;52.256;10.414;2024-02-26T01:38:59;99527.41;;;18.36;46.33
70240;BME280;57629;52.256;10.414;2024-02-26T01:39:59;99523.94;;;18.35;46.07
70240;BME280;57629;52.256;10.414;2024-02-26T01:41:00;99526.59;;;18.35;46.08
70240;BME280;57629;52.256;10.414;2024-02-26T01:42:03;99527.41;;;18.36;45.96
70240;BME280;57629;52.256;10.414;2024-02-26T01:43:04;99526.59;;;18.35;46.30
70240;BME280;57629;52.256;10.414;2024-02-26T01:44:06;99523.94;;;18.35;46.21
70240;BME280;57629;52.256;10.414;2024-02-26T01:45:13;99526.59;;;18.35;46.11
70240;BME280;57629;52.256;10.414;2024-02-26T01:46:16;99522.09;;;18.36;46.18
70240;BME280;57629;52.256;10.414;2024-02-26T01:47:21;99523.16;;;18.35;46.26
70240;BME280;57629;52.256;10.414;2024-02-26T01:48:29;99517.84;;;18.35;46.07
70240;BME280;57629;52.256;10.414;2024-02-26T01:49:34;99511.72;;;18.34;45.85
70240;BME280;57629;52.256;10.414;2024-02-26T01:50:40;99510.94;;;18.34;46.26
70240;BME280;57629;52.256;10.414;2024-02-26T01:51:42;99508.00;;;18.35;46.22
70240;BME280;57629;52.256;10.414;2024-02-26T01:52:44;99509.88;;;18.35;46.08
70240;BME280;57629;52.256;10.414;2024-02-26T01:53:45;99510.94;;;18.34;46.04
70240;BME280;57629;52.256;10.414;2024-02-26T01:54:46;99508.28;;;18.34;46.17
70240;BME280;57629;52.256;10.414;2024-02-26T01:55:47;99515.19;;;18.35;46.10
70240;BME280;57629;52.256;10.414;2024-02-26T01:56:49;99516.25;;;18.34;46.36
70240;BME280;57629;52.256;10.414;2024-02-26T01:57:52;99512.78;;;18.33;46.57
70240;BME280;57629;52.256;10.414;2024-02-26T01:58:54;99518.91;;;18.34;46.11
70240;BME280;57629;52.256;10.414;2024-02-26T01:59:55;99523.16;;;18.35;45.93
70240;BME280;57629;52.256;10.414;2024-02-26T02:00:56;99521.56;;;18.34;46.13
70240;BME280;57629;52.256;10.414;2024-02-26T02:01:59;99526.59;;;18.35;46.22
70240;BME280;57629;52.256;10.414;2024-02-26T02:03:02;99524.22;;;18.34;46.19
70240;BME280;57629;52.256;10.414;2024-02-26T02:04:03;99527.69;;;18.34;45.88
70240;BME280;57629;52.256;10.414;2024-02-26T02:05:06;99523.94;;;18.35;46.00
70240;BME280;57629;52.256;10.414;2024-02-26T02:06:07;99526.88;;;18.34;45.95
70240;BME280;57629;52.256;10.414;2024-02-26T02:07:12;99522.34;;;18.34;45.97
70240;BME280;57629;52.256;10.414;2024-02-26T02:08:16;99526.88;;;18.34;46.13
70240;BME280;57629;52.256;10.414;2024-02-26T02:09:20;99533.78;;;18.35;45.99
70240;BME280;57629;52.256;10.414;2024-02-26T02:10:26;99529.53;;;18.34;46.04
70240;BME280;57629;52.256;10.414;2024-02-26T02:11:29;99531.13;;;18.35;45.77
70240;BME280;57629;52.256;10.414;2024-02-26T02:12:30;99523.41;;;18.33;45.96
70240;BME280;57629;52.256;10.414;2024-02-26T02:13:34;99526.88;;;18.34;45.77
70240;BME280;57629;52.256;10.414;2024-02-26T02:14:35;99526.88;;;18.34;46.03
70240;BME280;57629;52.256;10.414;2024-02-26T02:15:37;99530.34;;;18.34;46.47
70240;BME280;57629;52.256;10.414;2024-02-26T02:16:38;99535.66;;;18.34;46.16
70240;BME280;57629;52.256;10.414;2024-02-26T02:17:39;99535.91;;;18.33;46.10
70240;BME280;57629;52.256;10.414;2024-02-26T02:18:40;99540.16;;;18.34;46.23
70240;BME280;57629;52.256;10.414;2024-02-26T02:19:40;99534.03;;;18.33;46.10
70240;BME280;57629;52.256;10.414;2024-02-26T02:20:42;99538.56;;;18.33;45.97
70240;BME280;57629;52.256;10.414;2024-02-26T02:21:43;99539.34;;;18.33;46.04
70240;BME280;57629;52.256;10.414;2024-02-26T02:22:49;99536.69;;;18.33;46.04
70240;BME280;57629;52.256;10.414;2024-02-26T02:23:50;99542.00;;;18.33;46.18
70240;BME280;57629;52.256;10.414;2024-02-26T02:24:52;99535.66;;;18.34;45.94
70240;BME280;57629;52.256;10.414;2024-02-26T02:25:53;99540.16;;;18.34;46.06
70240;BME280;57629;52.256;10.414;2024-02-26T02:26:55;99539.34;;;18.33;45.96
70240;BME280;57629;52.256;10.414;2024-02-26T02:27:56;99536.69;;;18.33;46.06
70240;BME280;57629;52.256;10.414;2024-02-26T02:28:58;99540.41;;;18.32;45.85
70240;BME280;57629;52.256;10.414;2024-02-26T02:30:01;99536.69;;;18.33;46.40
70240;BME280;57629;52.256;10.414;2024-02-26T02:31:03;99529.78;;;18.32;45.90
70240;BME280;57629;52.256;10.414;2024-02-26T02:32:05;99536.97;;;18.32;46.14
70240;BME280;57629;52.256;10.414;2024-02-26T02:33:06;99529.78;;;18.32;46.00
70240;BME280;57629;52.256;10.414;2024-02-26T02:34:08;99535.09;;;18.32;45.96
70240;BME280;57629;52.256;10.414;2024-02-26T02:35:09;99533.50;;;18.31;46.00
70240;BME280;57629;52.256;10.414;2024-02-26T02:36:17;99529.78;;;18.32;45.93
70240;BME280;57629;52.256;10.414;2024-02-26T02:37:18;99535.91;;;18.33;46.06
70240;BME280;57629;52.256;10.414;2024-02-26T02:38:22;99538.56;;;18.33;46.17
70240;BME280;57629;52.256;10.414;2024-02-26T02:39:29;99535.91;;;18.33;45.60
70240;BME280;57629;52.256;10.414;2024-02-26T02:40:34;99540.41;;;18.32;46.00
70240;BME280;57629;52.256;10.414;2024-02-26T02:41:34;99536.16;;;18.31;45.75
70240;BME280;57629;52.256;10.414;2024-02-26T02:42:35;99537.75;;;18.32;45.96
70240;BME280;57629;52.256;10.414;2024-02-26T02:43:37;99534.56;;;18.30;45.91
70240;BME280;57629;52.256;10.414;2024-02-26T02:44:38;99535.34;;;18.30;45.97
70240;BME280;57629;52.256;10.414;2024-02-26T02:45:39;99534.31;;;18.32;46.02
70240;BME280;57629;52.256;10.414;2024-02-26T02:46:40;99536.97;;;18.32;46.12
70240;BME280;57629;52.256;10.414;2024-02-26T02:47:40;99535.09;;;18.32;45.79
70240;BME280;57629;52.256;10.414;2024-02-26T02:48:41;99533.50;;;18.31;46.06
70240;BME280;57629;52.256;10.414;2024-02-26T02:49:42;99536.16;;;18.31;45.79
70240;BME280;57629;52.256;10.414;2024-02-26T02:50:44;99539.06;;;18.29;45.89
70240;BME280;57629;52.256;10.414;2024-02-26T02:51:46;99538.00;;;18.30;46.05
70240;BME280;57629;52.256;10.414;2024-02-26T02:52:47;99538.81;;;18.31;46.21
70240;BME280;57629;52.256;10.414;2024-02-26T02:53:48;99530.84;;;18.31;46.11
70240;BME280;57629;52.256;10.414;2024-02-26T02:54:48;99531.91;;;18.30;45.97
70240;BME280;57629;52.256;10.414;2024-02-26T02:55:49;99532.69;;;18.30;46.27
70240;BME280;57629;52.256;10.414;2024-02-26T02:56:50;99534.56;;;18.30;45.85
70240;BME280;57629;52.256;10.414;2024-02-26T02:57:51;99535.34;;;18.30;45.51
70240;BME280;57629;52.256;10.414;2024-02-26T02:58:52;99534.56;;;18.30;45.77
70240;BME280;57629;52.256;10.414;2024-02-26T02:59:53;99532.69;;;18.30;46.19
70240;BME280;57629;52.256;10.414;2024-02-26T03:00:53;99529.00;;;18.32;45.89
70240;BME280;57629;52.256;10.414;2024-02-26T03:01:54;99527.38;;;18.30;45.96
70240;BME280;57629;52.256;10.414;2024-02-26T03:02:55;99532.69;;;18.30;46.03
70240;BME280;57629;52.256;10.414;2024-02-26T03:03:55;99540.66;;;18.30;45.92
70240;BME280;57629;52.256;10.414;2024-02-26T03:04:56;99536.41;;;18.29;45.95
70240;BME280;57629;52.256;10.414;2024-02-26T03:05:57;99542.28;;;18.32;45.83
70240;BME280;57629;52.256;10.414;2024-02-26T03:06:59;99542.28;;;18.32;45.94
70240;BME280;57629;52.256;10.414;2024-02-26T03:08:00;99546.81;;;18.31;45.88
70240;BME280;57629;52.256;10.414;2024-02-26T03:09:01;99543.31;;;18.30;45.85
70240;BME280;57629;52.256;10.414;2024-02-26T03:10:02;99540.66;;;18.30;45.54
70240;BME280;57629;52.256;10.414;2024-02-26T03:11:03;99539.06;;;18.29;45.92
70240;BME280;57629;52.256;10.414;2024-02-26T03:12:05;99546.81;;;18.31;46.38
70240;BME280;57629;52.256;10.414;2024-02-26T03:13:08;99547.06;;;18.29;45.85
70240;BME280;57629;52.256;10.414;2024-02-26T03:14:09;99544.41;;;18.29;46.18
70240;BME280;57629;52.256;10.414;2024-02-26T03:15:10;99547.84;;;18.30;45.76
70240;BME280;57629;52.256;10.414;2024-02-26T03:16:14;99542.53;;;18.30;46.01
70240;BME280;57629;52.256;10.414;2024-02-26T03:17:21;99545.19;;;18.30;46.06
70240;BME280;57629;52.256;10.414;2024-02-26T03:18:22;99547.06;;;18.29;45.87
70240;BME280;57629;52.256;10.414;2024-02-26T03:19:27;99547.84;;;18.30;45.95
70240;BME280;57629;52.256;10.414;2024-02-26T03:20:29;99544.41;;;18.29;46.01
70240;BME280;57629;52.256;10.414;2024-02-26T03:21:31;99547.06;;;18.29;45.90
70240;BME280;57629;52.256;10.414;2024-02-26T03:22:38;99551.56;;;18.29;45.91
70240;BME280;57629;52.256;10.414;2024-02-26T03:23:39;99549.72;;;18.29;45.85
70240;BME280;57629;52.256;10.414;2024-02-26T03:24:39;99551.56;;;18.29;46.03
70240;BME280;57629;52.256;10.414;2024-02-26T03:25:41;99547.06;;;18.29;45.92
70240;BME280;57629;52.256;10.414;2024-02-26T03:26:42;99548.91;;;18.29;45.84
70240;BME280;57629;52.256;10.414;2024-02-26T03:27:43;99556.09;;;18.28;45.71
70240;BME280;57629;52.256;10.414;2024-02-26T03:28:43;99551.56;;;18.29;45.70
70240;BME280;57629;52.256;10.414;2024-02-26T03:29:44;99555.28;;;18.28;45.77
70240;BME280;57629;52.256;10.414;2024-02-26T03:30:45;99552.63;;;18.28;45.91
70240;BME280;57629;52.256;10.414;2024-02-26T03:31:46;99553.44;;;18.28;45.76
70240;BME280;57629;52.256;10.414;2024-02-26T03:32:47;99558.75;;;18.28;45.78
70240;BME280;57629;52.256;10.414;2024-02-26T03:33:47;99554.22;;;18.29;46.12
70240;BME280;57629;52.256;10.414;2024-02-26T03:34:48;99554.22;;;18.29;45.86
70240;BME280;57629;52.256;10.414;2024-02-26T03:35:48;99558.47;;;18.30;45.82
70240;BME280;57629;52.256;10.414;2024-02-26T03:36:49;99560.34;;;18.29;46.04
70240;BME280;57629;52.256;10.414;2024-02-26T03:37:51;99564.06;;;18.28;45.73
70240;BME280;57629;52.256;10.414;2024-02-26T03:38:52;99564.84;;;18.29;45.76
70240;BME280;57629;52.256;10.414;2024-02-26T03:39:53;99556.09;;;18.28;45.59
70240;BME280;57629;52.256;10.414;2024-02-26T03:40:53;99558.75;;;18.28;45.70
70240;BME280;57629;52.256;10.414;2024-02-26T03:41:54;99563.53;;;18.26;45.48
70240;BME280;57629;52.256;10.414;2024-02-26T03:42:54;99557.94;;;18.28;45.60
70240;BME280;57629;52.256;10.414;2024-02-26T03:43:57;99557.94;;;18.28;45.85
70240;BME280;57629;52.256;10.414;2024-02-26T03:44:57;99567.75;;;18.27;45.92
70240;BME280;57629;52.256;10.414;2024-02-26T03:45:58;99558.75;;;18.28;45.94
70240;BME280;57629;52.256;10.414;2024-02-26T03:46:59;99564.06;;;18.28;45.85
70240;BME280;57629;52.256;10.414;2024-02-26T03:47:59;99565.91;;;18.28;45.82
70240;BME280;57629;52.256;10.414;2024-02-26T03:49:00;99562.44;;;18.27;45.85
70240;BME280;57629;52.256;10.414;2024-02-26T03:50:01;99565.09;;;18.27;45.82
70240;BME280;57629;52.256;10.414;2024-02-26T03:51:02;99572.28;;;18.27;45.82
70240;BME280;57629;52.256;10.414;2024-02-26T03:52:04;99562.44;;;18.27;45.74
70240;BME280;57629;52.256;10.414;2024-02-26T03:53:06;99573.06;;;18.27;45.90
70240;BME280;57629;52.256;10.414;2024-02-26T03:54:07;99566.97;;;18.27;45.71
70240;BME280;57629;52.256;10.414;2024-02-26T03:55:11;99557.13;;;18.27;45.79
70240;BME280;57629;52.256;10.414;2024-02-26T03:56:21;99556.34;;;18.27;45.62
70240;BME280;57629;52.256;10.414;2024-02-26T03:57:26;99564.31;;;18.27;45.97
70240;BME280;57629;52.256;10.414;2024-02-26T03:58:28;99562.44;;;18.27;45.87
70240;BME280;57629;52.256;10.414;2024-02-26T03:59:36;99559.78;;;18.27;45.85
70240;BME280;57629;52.256;10.414;2024-02-26T04:00:37;99560.88;;;18.26;45.83
70240;BME280;57629;52.256;10.414;2024-02-26T04:01:45;99564.31;;;18.27;45.98
70240;BME280;57629;52.256;10.414;2024-02-26T04:02:46;99558.19;;;18.26;45.91
70240;BME280;57629;52.256;10.414;2024-02-26T04:03:47;99562.69;;;18.26;45.91
70240;BME280;57629;52.256;10.414;2024-02-26T04:04:48;99562.69;;;18.26;45.94
70240;BME280;57629;52.256;10.414;2024-02-26T04:05:48;99558.19;;;18.26;45.86
70240;BME280;57629;52.256;10.414;2024-02-26T04:06:49;99558.19;;;18.26;45.84
70240;BME280;57629;52.256;10.414;2024-02-26T04:07:50;99564.31;;;18.27;46.00
70240;BME280;57629;52.256;10.414;2024-02-26T04:08:53;99556.34;;;18.27;45.60
70240;BME280;57629;52.256;10.414;2024-02-26T04:09:54;99554.47;;;18.27;45.83
70240;BME280;57629;52.256;10.414;2024-02-26T04:10:55;99557.38;;;18.26;45.88
70240;BME280;57629;52.256;10.414;2024-02-26T04:11:56;99555.53;;;18.26;45.84
70240;BME280;57629;52.256;10.414;2024-02-26T04:12:56;99554.72;;;18.26;45.73
70240;BME280;57629;52.256;10.414;2024-02-26T04:13:57;99552.88;;;18.26;45.76
70240;BME280;57629;52.256;10.414;2024-02-26T04:14:58;99556.59;;;18.25;45.68
70240;BME280;57629;52.256;10.414;2024-02-26T04:16:00;99546.75;;;18.26;46.07
70240;BME280;57629;52.256;10.414;2024-02-26T04:17:00;99556.59;;;18.25;45.72
70240;BME280;57629;52.256;10.414;2024-02-26T04:18:01;99548.63;;;18.25;45.75
70240;BME280;57629;52.256;10.414;2024-02-26T04:19:02;99552.06;;;18.26;45.71
70240;BME280;57629;52.256;10.414;2024-02-26T04:20:04;99560.03;;;18.26;46.01
70240;BME280;57629;52.256;10.414;2024-02-26T04:21:06;99555.53;;;18.26;45.76
70240;BME280;57629;52.256;10.414;2024-02-26T04:22:09;99566.19;;;18.26;45.48
70240;BME280;57629;52.256;10.414;2024-02-26T04:23:11;99556.59;;;18.25;45.86
70240;BME280;57629;52.256;10.414;2024-02-26T04:24:22;99557.38;;;18.26;45.85
70240;BME280;57629;52.256;10.414;2024-02-26T04:25:26;99558.44;;;18.25;45.88
70240;BME280;57629;52.256;10.414;2024-02-26T04:26:31;99563.53;;;18.26;45.85
70240;BME280;57629;52.256;10.414;2024-02-26T04:27:31;99557.38;;;18.26;45.72
70240;BME280;57629;52.256;10.414;2024-02-26T04:28:34;99555.00;;;18.24;45.77
70240;BME280;57629;52.256;10.414;2024-02-26T04:29:43;99569.06;;;18.25;45.79
70240;BME280;57629;52.256;10.414;2024-02-26T04:30:43;99557.66;;;18.24;45.78
70240;BME280;57629;52.256;10.414;2024-02-26T04:31:44;99570.66;;;18.26;45.94
70240;BME280;57629;52.256;10.414;2024-02-26T04:32:45;99572.53;;;18.25;45.60
70240;BME280;57629;52.256;10.414;2024-02-26T04:33:45;99568.00;;;18.26;45.75
70240;BME280;57629;52.256;10.414;2024-02-26T04:34:46;99571.72;;;18.25;45.53
70240;BME280;57629;52.256;10.414;2024-02-26T04:35:47;99574.41;;;18.25;45.32
70240;BME280;57629;52.256;10.414;2024-02-26T04:36:48;99570.66;;;18.26;45.69
70240;BME280;57629;52.256;10.414;2024-02-26T04:37:48;99577.06;;;18.25;46.02
70240;BME280;57629;52.256;10.414;2024-02-26T04:38:49;99577.06;;;18.25;45.65
70240;BME280;57629;52.256;10.414;2024-02-26T04:39:51;99577.06;;;18.25;45.66
70240;BME280;57629;52.256;10.414;2024-02-26T04:40:52;99578.91;;;18.24;45.65
70240;BME280;57629;52.256;10.414;2024-02-26T04:41:52;99583.16;;;18.25;45.57
70240;BME280;57629;52.256;10.414;2024-02-26T04:42:54;99583.16;;;18.25;45.69
70240;BME280;57629;52.256;10.414;2024-02-26T04:43:59;99589.53;;;18.24;45.77
70240;BME280;57629;52.256;10.414;2024-02-26T04:45:00;99589.53;;;18.24;45.57
70240;BME280;57629;52.256;10.414;2024-02-26T04:46:00;99585.28;;;18.23;45.80
70240;BME280;57629;52.256;10.414;2024-02-26T04:47:01;99588.75;;;18.24;45.66
70240;BME280;57629;52.256;10.414;2024-02-26T04:48:02;99593.78;;;18.25;45.34
70240;BME280;57629;52.256;10.414;2024-02-26T04:49:04;99596.72;;;18.24;45.62
70240;BME280;57629;52.256;10.414;2024-02-26T04:50:06;99596.72;;;18.24;45.50
70240;BME280;57629;52.256;10.414;2024-02-26T04:51:07;99603.63;;;18.25;45.58
70240;BME280;57629;52.256;10.414;2024-02-26T04:52:09;99605.50;;;18.24;45.43
70240;BME280;57629;52.256;10.414;2024-02-26T04:53:13;99608.94;;;18.25;45.71
70240;BME280;57629;52.256;10.414;2024-02-26T04:54:23;99600.97;;;18.25;45.75
70240;BME280;57629;52.256;10.414;2024-02-26T04:55:34;99607.34;;;18.24;45.45
70240;BME280;57629;52.256;10.414;2024-02-26T04:56:34;99605.50;;;18.24;45.60
70240;BME280;57629;52.256;10.414;2024-02-26T04:57:45;99608.16;;;18.24;45.72
70240;BME280;57629;52.256;10.414;2024-02-26T04:58:46;99602.03;;;18.24;45.53
70240;BME280;57629;52.256;10.414;2024-02-26T04:59:46;99613.47;;;18.24;45.50
70240;BME280;57629;52.256;10.414;2024-02-26T05:00:47;99612.66;;;18.24;45.56
70240;BME280;57629;52.256;10.414;2024-02-26T05:01:53;99611.06;;;18.23;45.43
70240;BME280;57629;52.256;10.414;2024-02-26T05:02:54;99614.25;;;18.25;45.48
70240;BME280;57629;52.256;10.414;2024-02-26T05:03:54;99614.50;;;18.23;45.88
70240;BME280;57629;52.256;10.414;2024-02-26T05:04:55;99611.84;;;18.23;45.51
70240;BME280;57629;52.256;10.414;2024-02-26T05:05:56;99613.47;;;18.24;45.53
70240;BME280;57629;52.256;10.414;2024-02-26T05:06:56;99619.03;;;18.23;45.66
70240;BME280;57629;52.256;10.414;2024-02-26T05:07:57;99618.78;;;18.24;45.80
70240;BME280;57629;52.256;10.414;2024-02-26T05:08:58;99616.38;;;18.23;45.56
70240;BME280;57629;52.256;10.414;2024-02-26T05:09:59;99620.63;;;18.24;45.78
70240;BME280;57629;52.256;10.414;2024-02-26T05:11:01;99622.47;;;18.23;45.58
70240;BME280;57629;52.256;10.414;2024-02-26T05:12:03;99625.13;;;18.23;45.33
70240;BME280;57629;52.256;10.414;2024-02-26T05:13:04;99622.47;;;18.23;45.51
70240;BME280;57629;52.256;10.414;2024-02-26T05:14:05;99621.69;;;18.23;45.47
70240;BME280;57629;52.256;10.414;2024-02-26T05:15:08;99619.81;;;18.23;45.78
70240;BME280;57629;52.256;10.414;2024-02-26T05:16:09;99622.47;;;18.23;45.21
70240;BME280;57629;52.256;10.414;2024-02-26T05:17:14;99622.47;;;18.23;45.72
70240;BME280;57629;52.256;10.414;2024-02-26T05:18:22;99626.19;;;18.22;45.18
70240;BME280;57629;52.256;10.414;2024-02-26T05:19:31;99623.53;;;18.22;45.59
70240;BME280;57629;52.256;10.414;2024-02-26T05:20:32;99626.19;;;18.22;45.62
70240;BME280;57629;52.256;10.414;2024-02-26T05:21:33;99620.09;;;18.22;45.62
70240;BME280;57629;52.256;10.414;2024-02-26T05:22:37;99623.53;;;18.22;45.54
70240;BME280;57629;52.256;10.414;2024-02-26T05:23:37;99626.19;;;18.22;45.78